Time;durP1;ratioP1;P1;durP2;ratioP2;P2;SDS_P1;SDS_P2;PMS_P1;PMS_P2;Temp;Humidity;BMP_temperature;BMP_pressure;BME280_temperature;BME280_humidity;BME280_pressure;Samples;Min_cycle;Max_cycle;Signal;HPM_P1;HPM_P2
2021/10/23 00:01:08;;;;;;;8.90;3.80;;;7.40;80.60;;;;;;5095619;28;20035;-67
2021/10/23 00:03:34;;;;;;;10.00;3.08;;;7.40;80.80;;;;;;5096464;28;20032;-71
2021/10/23 00:06:00;;;;;;;12.13;3.20;;;7.40;81.10;;;;;;5089465;28;20024;-71
2021/10/23 00:08:26;;;;;;;9.75;3.15;;;7.40;81.20;;;;;;5079205;28;20031;-71
2021/10/23 00:10:51;;;;;;;8.48;3.00;;;7.50;81.30;;;;;;5090587;28;20028;-73
2021/10/23 00:13:17;;;;;;;8.60;2.95;;;7.50;81.30;;;;;;5090169;28;20035;-73
2021/10/23 00:15:43;;;;;;;11.13;3.22;;;7.50;81.40;;;;;;5083869;28;20501;-71
2021/10/23 00:18:08;;;;;;;8.57;3.10;;;7.50;81.50;;;;;;5093249;28;20028;-68
2021/10/23 00:20:34;;;;;;;7.22;2.75;;;7.50;81.60;;;;;;5078108;28;20054;-68
2021/10/23 00:22:59;;;;;;;6.57;3.15;;;7.50;81.60;;;;;;5083374;28;20036;-72
2021/10/23 00:25:26;;;;;;;7.95;3.13;;;7.50;81.70;;;;;;5089934;28;20013;-68
2021/10/23 00:27:55;;;;;;;9.93;3.50;;;7.50;81.80;;;;;;5093720;28;20052;-72
2021/10/23 00:30:21;;;;;;;10.35;3.17;;;7.50;82.00;;;;;;5075968;28;20032;-69
2021/10/23 00:32:47;;;;;;;7.82;3.47;;;7.50;82.10;;;;;;5071841;28;20081;-72
2021/10/23 00:35:12;;;;;;;8.07;3.40;;;7.50;82.20;;;;;;5054760;28;20372;-69
2021/10/23 00:37:38;;;;;;;9.57;3.53;;;7.50;82.30;;;;;;5075853;28;20486;-69
2021/10/23 00:40:05;;;;;;;7.65;3.38;;;7.50;82.40;;;;;;5072091;28;20374;-69
2021/10/23 00:42:30;;;;;;;11.00;3.47;;;7.50;82.40;;;;;;5090126;28;20024;-71
2021/10/23 00:44:56;;;;;;;9.05;4.03;;;7.50;82.60;;;;;;5071753;28;20055;-72
2021/10/23 00:47:22;;;;;;;9.52;3.90;;;7.50;82.80;;;;;;5076799;28;20035;-72
2021/10/23 00:49:53;;;;;;;12.93;4.35;;;7.50;82.80;;;;;;5089676;28;20379;-71
2021/10/23 00:52:24;;;;;;;7.50;3.90;;;7.50;82.90;;;;;;5091179;28;20020;-72
2021/10/23 00:54:51;;;;;;;13.13;4.60;;;7.50;82.90;;;;;;5090938;28;20077;-72
2021/10/23 00:57:17;;;;;;;7.00;3.92;;;7.50;83.00;;;;;;5097686;28;20200;-72
2021/10/23 00:59:43;;;;;;;11.07;4.40;;;7.60;83.00;;;;;;5094282;28;20023;-72
2021/10/23 01:02:09;;;;;;;12.00;4.40;;;7.50;82.90;;;;;;5095185;28;20102;-68
2021/10/23 01:04:35;;;;;;;8.57;4.47;;;7.60;82.80;;;;;;5089241;28;20100;-68
2021/10/23 01:07:01;;;;;;;9.80;4.72;;;7.50;82.80;;;;;;5089364;28;20024;-67
2021/10/23 01:09:27;;;;;;;8.80;4.07;;;7.50;82.80;;;;;;5092180;28;20078;-68
2021/10/23 01:11:53;;;;;;;12.45;4.50;;;7.50;82.80;;;;;;5098048;28;20059;-68
2021/10/23 01:14:21;;;;;;;10.35;4.95;;;7.50;82.90;;;;;;5071557;28;20078;-67
2021/10/23 01:16:49;;;;;;;8.00;4.20;;;7.50;82.90;;;;;;5073601;28;20032;-68
2021/10/23 01:19:15;;;;;;;10.05;4.13;;;7.50;82.80;;;;;;5087881;28;20060;-72
2021/10/23 01:21:45;;;;;;;12.52;4.57;;;7.50;82.80;;;;;;5086538;28;20043;-71
2021/10/23 01:24:11;;;;;;;8.60;3.97;;;7.40;82.80;;;;;;5089212;28;20028;-72
2021/10/23 01:26:37;;;;;;;12.20;4.30;;;7.40;82.80;;;;;;5090494;28;20020;-69
2021/10/23 01:29:06;;;;;;;10.35;4.40;;;7.40;82.80;;;;;;5089523;28;20532;-69
2021/10/23 01:31:32;;;;;;;10.75;5.57;;;7.40;82.80;;;;;;5087964;28;20074;-68
2021/10/23 01:33:58;;;;;;;13.23;4.85;;;7.40;82.80;;;;;;5092196;28;20031;-68
2021/10/23 01:36:24;;;;;;;10.82;4.57;;;7.40;82.80;;;;;;5088212;28;20108;-69
2021/10/23 01:38:50;;;;;;;11.55;4.40;;;7.30;82.70;;;;;;5089148;28;20494;-68
2021/10/23 01:41:16;;;;;;;10.13;4.30;;;7.30;82.60;;;;;;5089377;28;20031;-69
2021/10/23 01:43:43;;;;;;;7.93;4.25;;;7.30;82.60;;;;;;5089309;28;20024;-69
2021/10/23 01:46:09;;;;;;;13.65;4.90;;;7.30;82.60;;;;;;5091386;28;20025;-68
2021/10/23 01:48:36;;;;;;;11.43;4.63;;;7.30;82.60;;;;;;5084896;28;20029;-68
2021/10/23 01:51:03;;;;;;;10.25;4.00;;;7.30;82.40;;;;;;5055286;28;20032;-68
2021/10/23 01:53:32;;;;;;;11.95;4.32;;;7.20;82.20;;;;;;5093226;28;20071;-68
2021/10/23 01:55:59;;;;;;;9.32;4.95;;;7.20;82.20;;;;;;5078799;28;20027;-69
2021/10/23 01:58:25;;;;;;;7.00;4.65;;;7.20;82.30;;;;;;5075150;28;20032;-68
2021/10/23 02:00:50;;;;;;;9.85;4.47;;;7.20;82.20;;;;;;5070909;28;20498;-69
2021/10/23 02:03:16;;;;;;;8.65;4.53;;;7.10;82.00;;;;;;5093819;28;20106;-68
2021/10/23 02:05:42;;;;;;;8.07;4.18;;;7.10;81.90;;;;;;5087609;28;20034;-69
2021/10/23 02:08:07;;;;;;;8.85;4.22;;;7.10;81.70;;;;;;5093959;28;20583;-68
2021/10/23 02:10:33;;;;;;;9.57;4.65;;;7.10;81.60;;;;;;5070365;28;20031;-68
2021/10/23 02:12:59;;;;;;;11.55;4.32;;;7.00;81.70;;;;;;5058477;28;20054;-72
2021/10/23 02:15:25;;;;;;;5.70;3.80;;;7.00;81.70;;;;;;5070367;28;20593;-72
2021/10/23 02:17:51;;;;;;;7.63;3.92;;;7.00;81.60;;;;;;5070466;28;20119;-72
2021/10/23 02:20:17;;;;;;;5.70;3.72;;;7.00;81.50;;;;;;5099754;28;20052;-72
2021/10/23 02:22:43;;;;;;;7.57;4.57;;;6.90;81.40;;;;;;5070456;28;20036;-72
2021/10/23 02:25:11;;;;;;;9.32;4.40;;;6.90;81.30;;;;;;5100172;28;20020;-72
2021/10/23 02:27:37;;;;;;;10.20;5.03;;;6.90;81.30;;;;;;5088993;28;20063;-72
2021/10/23 02:30:05;;;;;;;10.38;5.22;;;6.90;81.40;;;;;;5082346;28;20020;-72
2021/10/23 02:32:32;;;;;;;16.17;5.70;;;6.90;81.40;;;;;;5088769;28;20495;-72
2021/10/23 02:34:58;;;;;;;8.75;4.10;;;6.90;81.50;;;;;;5079889;28;20089;-72
2021/10/23 02:37:24;;;;;;;12.60;4.50;;;6.80;81.60;;;;;;5089035;28;20024;-72
2021/10/23 02:39:51;;;;;;;8.68;4.50;;;6.80;81.70;;;;;;5097852;28;20016;-72
2021/10/23 02:42:17;;;;;;;7.53;4.40;;;6.80;81.80;;;;;;5076517;28;20494;-72
2021/10/23 02:44:44;;;;;;;12.63;5.45;;;6.80;81.90;;;;;;5088345;28;20024;-72
2021/10/23 02:47:10;;;;;;;9.50;4.63;;;6.80;81.90;;;;;;5072821;28;20024;-72
2021/10/23 02:49:37;;;;;;;6.60;4.72;;;6.80;82.00;;;;;;5098767;28;20023;-71
2021/10/23 02:52:04;;;;;;;10.32;4.15;;;6.80;82.10;;;;;;5079655;28;20027;-69
2021/10/23 02:54:30;;;;;;;10.40;4.63;;;6.90;82.20;;;;;;5100228;28;20019;-68
2021/10/23 02:56:56;;;;;;;9.30;4.28;;;6.90;82.20;;;;;;5094965;28;20031;-68
2021/10/23 02:59:22;;;;;;;7.65;4.35;;;6.90;82.20;;;;;;5095665;28;20041;-67
2021/10/23 03:01:48;;;;;;;9.48;4.50;;;6.90;82.10;;;;;;5095537;28;20032;-69
2021/10/23 03:04:14;;;;;;;8.52;4.40;;;6.90;82.20;;;;;;5073676;28;20025;-68
2021/10/23 03:06:44;;;;;;;9.00;4.47;;;6.90;82.20;;;;;;5075967;28;20040;-68
2021/10/23 03:09:11;;;;;;;4.90;3.75;;;6.90;82.20;;;;;;5077548;28;20071;-68
2021/10/23 03:11:37;;;;;;;6.03;4.47;;;6.80;82.20;;;;;;5084254;28;20036;-67
2021/10/23 03:14:03;;;;;;;8.20;4.38;;;6.90;82.20;;;;;;5093873;28;20028;-68
2021/10/23 03:16:29;;;;;;;12.50;4.57;;;6.80;82.20;;;;;;5089695;28;20390;-67
2021/10/23 03:18:54;;;;;;;7.97;4.55;;;6.80;82.30;;;;;;5090052;28;20059;-68
2021/10/23 03:21:20;;;;;;;9.20;4.43;;;6.80;82.50;;;;;;5091214;28;20063;-68
2021/10/23 03:23:46;;;;;;;9.88;4.65;;;6.80;82.80;;;;;;5073109;28;20420;-68
2021/10/23 03:26:11;;;;;;;6.93;3.88;;;6.80;83.10;;;;;;5090838;28;20032;-72
2021/10/23 03:28:37;;;;;;;9.50;4.10;;;6.80;83.20;;;;;;5073286;28;20020;-72
2021/10/23 03:31:03;;;;;;;12.05;4.47;;;6.80;83.20;;;;;;5073217;28;20023;-72
2021/10/23 03:33:29;;;;;;;9.27;4.20;;;6.80;83.30;;;;;;5090498;28;20500;-71
2021/10/23 03:35:54;;;;;;;10.98;4.40;;;6.80;83.30;;;;;;5072376;28;20024;-71
2021/10/23 03:38:20;;;;;;;8.77;5.00;;;6.80;83.20;;;;;;5073041;28;20483;-71
2021/10/23 03:40:46;;;;;;;10.80;4.80;;;6.80;83.20;;;;;;5089627;28;20143;-71
2021/10/23 03:43:11;;;;;;;6.50;4.15;;;6.90;83.30;;;;;;5091133;28;20031;-71
2021/10/23 03:45:37;;;;;;;7.07;4.10;;;6.90;83.30;;;;;;5089337;28;20089;-68
2021/10/23 03:48:03;;;;;;;9.82;4.85;;;6.90;83.20;;;;;;5072239;28;20050;-68
2021/10/23 03:50:29;;;;;;;7.75;4.63;;;6.80;83.00;;;;;;5090381;28;20027;-68
2021/10/23 03:52:56;;;;;;;6.75;4.35;;;6.80;83.00;;;;;;5090857;28;20044;-72
2021/10/23 03:55:21;;;;;;;10.32;4.13;;;6.80;82.90;;;;;;5080785;28;20054;-68
2021/10/23 03:57:47;;;;;;;8.32;4.60;;;6.80;82.80;;;;;;5090189;28;20066;-67
2021/10/23 04:00:13;;;;;;;7.15;4.50;;;6.80;82.70;;;;;;5090290;28;20028;-68
2021/10/23 04:02:39;;;;;;;7.55;4.63;;;6.70;82.60;;;;;;5071894;28;20407;-68
2021/10/23 04:05:06;;;;;;;6.75;4.63;;;6.70;82.50;;;;;;5089702;28;20513;-68
2021/10/23 04:07:32;;;;;;;6.72;4.60;;;6.70;82.50;;;;;;5072172;28;20024;-68
2021/10/23 04:09:59;;;;;;;7.97;5.00;;;6.60;82.40;;;;;;5090441;28;20026;-68
2021/10/23 04:12:25;;;;;;;7.70;4.70;;;6.60;82.40;;;;;;5071757;28;20372;-72
2021/10/23 04:14:51;;;;;;;8.32;4.95;;;6.60;82.30;;;;;;5088312;28;20040;-72
2021/10/23 04:17:17;;;;;;;10.88;5.40;;;6.60;82.30;;;;;;5090428;28;20435;-72
2021/10/23 04:19:42;;;;;;;6.47;4.50;;;6.60;82.30;;;;;;5053082;28;20048;-72
2021/10/23 04:22:09;;;;;;;11.40;4.53;;;6.50;82.20;;;;;;5090328;28;20063;-69
2021/10/23 04:24:36;;;;;;;10.23;4.80;;;6.50;82.20;;;;;;5090437;28;20383;-69
2021/10/23 04:27:02;;;;;;;12.68;4.88;;;6.50;82.10;;;;;;5085426;28;20433;-72
2021/10/23 04:29:28;;;;;;;8.82;5.30;;;6.50;82.20;;;;;;5071935;28;20514;-68
2021/10/23 04:31:54;;;;;;;8.98;5.30;;;6.50;82.10;;;;;;5089431;28;20032;-71
2021/10/23 04:34:20;;;;;;;8.15;5.13;;;6.50;82.20;;;;;;5089591;28;20124;-71
2021/10/23 04:36:45;;;;;;;8.05;5.18;;;6.40;82.10;;;;;;5089534;28;20030;-68
2021/10/23 04:39:11;;;;;;;6.43;4.90;;;6.40;82.00;;;;;;5090205;28;20054;-73
2021/10/23 04:41:37;;;;;;;7.65;4.82;;;6.40;82.10;;;;;;5089485;28;20021;-72
2021/10/23 04:44:04;;;;;;;8.70;5.57;;;6.40;82.00;;;;;;5089202;28;20027;-68
2021/10/23 04:46:29;;;;;;;12.52;5.22;;;6.40;82.10;;;;;;5071168;28;20544;-72
2021/10/23 04:48:55;;;;;;;10.43;6.75;;;6.40;82.10;;;;;;5089336;28;20024;-72
2021/10/23 04:51:21;;;;;;;7.93;5.90;;;6.40;82.10;;;;;;5072266;28;20024;-71
2021/10/23 04:53:46;;;;;;;13.00;6.05;;;6.30;82.10;;;;;;5086730;28;20105;-67
2021/10/23 04:56:12;;;;;;;7.13;5.10;;;6.30;82.20;;;;;;5087014;28;20028;-67
2021/10/23 04:58:38;;;;;;;9.60;6.18;;;6.30;82.20;;;;;;5087983;28;20558;-67
2021/10/23 05:01:04;;;;;;;13.82;6.72;;;6.30;82.30;;;;;;5088334;28;20032;-68
2021/10/23 05:03:30;;;;;;;12.02;6.28;;;6.30;82.30;;;;;;5089487;28;20108;-71
2021/10/23 05:05:57;;;;;;;11.32;5.78;;;6.30;82.30;;;;;;5088199;28;20051;-71
2021/10/23 05:08:23;;;;;;;12.68;6.25;;;6.30;82.40;;;;;;5071723;28;20107;-71
2021/10/23 05:10:49;;;;;;;11.52;5.75;;;6.20;82.30;;;;;;5093911;28;20036;-71
2021/10/23 05:13:15;;;;;;;8.90;6.10;;;6.30;82.40;;;;;;5081583;28;20039;-72
2021/10/23 05:15:41;;;;;;;11.20;6.00;;;6.20;82.50;;;;;;5094288;28;20040;-71
2021/10/23 05:18:07;;;;;;;12.27;6.55;;;6.20;82.50;;;;;;5092492;28;20448;-71
2021/10/23 05:20:32;;;;;;;12.73;7.25;;;6.20;82.70;;;;;;5088802;28;20044;-71
2021/10/23 05:22:58;;;;;;;10.18;6.72;;;6.30;82.80;;;;;;5089207;28;20036;-67
2021/10/23 05:25:24;;;;;;;11.63;6.38;;;6.20;82.80;;;;;;5088843;28;20023;-67
2021/10/23 05:27:50;;;;;;;8.63;6.28;;;6.20;83.10;;;;;;5076865;28;20028;-67
2021/10/23 05:30:15;;;;;;;7.63;6.15;;;6.20;82.80;;;;;;5067297;28;20494;-68
2021/10/23 05:32:41;;;;;;;9.13;6.68;;;6.20;82.80;;;;;;5070554;28;20028;-71
2021/10/23 05:35:07;;;;;;;7.68;6.22;;;6.20;82.80;;;;;;5087946;28;20295;-68
2021/10/23 05:37:33;;;;;;;11.38;6.50;;;6.20;82.80;;;;;;5092971;28;20032;-68
2021/10/23 05:39:59;;;;;;;9.00;5.57;;;6.20;82.70;;;;;;5096919;28;20029;-67
2021/10/23 05:42:25;;;;;;;9.15;6.30;;;6.20;82.60;;;;;;5090905;28;20038;-68
2021/10/23 05:44:51;;;;;;;10.35;6.40;;;6.20;82.50;;;;;;5070113;28;20059;-69
2021/10/23 05:47:16;;;;;;;7.95;5.47;;;6.20;82.50;;;;;;5099329;28;20079;-68
2021/10/23 05:49:42;;;;;;;11.13;6.55;;;6.10;82.40;;;;;;5088805;28;20109;-68
2021/10/23 05:52:08;;;;;;;9.45;6.85;;;6.10;82.50;;;;;;5088841;28;20028;-68
2021/10/23 05:54:39;;;;;;;10.50;6.45;;;6.10;82.50;;;;;;5067302;28;20137;-67
2021/10/23 05:57:09;;;;;;;10.68;7.50;;;6.10;82.50;;;;;;5079570;28;20418;-71
2021/10/23 05:59:45;;;;;;;9.23;6.68;;;6.10;82.50;;;;;;5088872;28;20024;-68
2021/10/23 06:02:22;;;;;;;7.90;6.57;;;6.00;82.50;;;;;;5055131;28;20056;-68
2021/10/23 06:04:59;;;;;;;8.18;6.63;;;6.00;82.40;;;;;;5087917;28;20103;-71
2021/10/23 06:07:29;;;;;;;10.52;6.90;;;6.00;82.30;;;;;;5098463;28;20043;-68
2021/10/23 06:09:57;;;;;;;13.40;7.57;;;6.00;82.40;;;;;;5074253;28;20232;-72
2021/10/23 06:12:24;;;;;;;9.50;7.07;;;6.00;82.50;;;;;;5074576;28;20016;-71
2021/10/23 06:14:50;;;;;;;10.90;7.18;;;6.00;82.50;;;;;;5089411;28;20492;-68
2021/10/23 06:17:15;;;;;;;10.77;7.43;;;5.90;82.50;;;;;;5066637;28;20032;-71
2021/10/23 06:19:41;;;;;;;7.72;6.50;;;6.00;82.60;;;;;;5076986;28;20123;-68
2021/10/23 06:22:07;;;;;;;7.03;6.25;;;5.90;82.50;;;;;;5080811;28;20043;-69
2021/10/23 06:24:34;;;;;;;11.88;6.82;;;6.00;82.40;;;;;;5098042;28;20032;-68
2021/10/23 06:27:01;;;;;;;10.98;6.65;;;5.90;82.30;;;;;;5097578;28;20039;-68
2021/10/23 06:29:27;;;;;;;10.38;6.63;;;6.00;82.30;;;;;;5094123;28;20077;-71
2021/10/23 06:31:52;;;;;;;8.65;6.97;;;5.90;82.20;;;;;;5104659;28;20028;-68
2021/10/23 06:34:18;;;;;;;12.40;6.53;;;5.90;82.20;;;;;;5094768;28;20073;-67
2021/10/23 06:36:44;;;;;;;10.13;7.30;;;5.90;82.30;;;;;;5092159;28;20407;-68
2021/10/23 06:39:10;;;;;;;10.13;6.80;;;5.90;82.30;;;;;;5090852;28;20032;-67
2021/10/23 06:41:36;;;;;;;10.20;6.75;;;5.90;82.40;;;;;;5057254;28;20024;-68
2021/10/23 06:44:03;;;;;;;9.20;6.50;;;5.90;82.50;;;;;;5077940;28;20111;-68
2021/10/23 06:46:30;;;;;;;8.25;6.90;;;6.00;82.50;;;;;;5083498;28;20023;-71
2021/10/23 06:48:56;;;;;;;10.95;7.25;;;5.90;82.50;;;;;;5105883;27;20408;-71
2021/10/23 06:51:21;;;;;;;11.10;7.40;;;5.90;82.60;;;;;;5080762;28;20028;-71
2021/10/23 06:53:47;;;;;;;10.00;7.38;;;5.90;82.70;;;;;;5072130;28;20111;-71
2021/10/23 06:56:13;;;;;;;10.77;7.22;;;6.00;82.80;;;;;;5090585;28;20044;-71
2021/10/23 06:58:38;;;;;;;12.15;8.00;;;6.00;82.90;;;;;;5089539;28;20027;-71
2021/10/23 07:01:05;;;;;;;10.77;8.02;;;6.00;83.00;;;;;;5073437;28;20024;-71
2021/10/23 07:03:31;;;;;;;10.77;7.70;;;6.00;83.10;;;;;;5063050;28;20036;-68
2021/10/23 07:05:57;;;;;;;13.27;7.95;;;6.00;83.20;;;;;;5069084;28;20024;-68
2021/10/23 07:08:22;;;;;;;11.23;7.57;;;6.10;83.50;;;;;;5088648;28;20024;-72
2021/10/23 07:10:48;;;;;;;17.10;9.07;;;6.20;83.90;;;;;;5090270;28;20032;-71
2021/10/23 07:13:14;;;;;;;33.03;9.85;;;6.20;84.30;;;;;;5082955;28;20039;-68
2021/10/23 07:15:40;;;;;;;37.13;11.43;;;6.30;84.80;;;;;;5078189;28;20040;-71
2021/10/23 07:18:05;;;;;;;122.38;13.48;;;6.40;85.30;;;;;;5084822;28;20036;-72
2021/10/23 07:20:32;;;;;;;74.95;12.23;;;6.40;85.80;;;;;;5085322;28;20110;-72
2021/10/23 07:22:58;;;;;;;32.85;13.07;;;6.50;86.10;;;;;;5090663;28;20032;-68
2021/10/23 07:25:26;;;;;;;60.63;12.75;;;6.60;86.60;;;;;;5073301;28;20401;-69
2021/10/23 07:27:52;;;;;;;35.33;12.25;;;6.70;86.70;;;;;;5090544;28;20036;-68
2021/10/23 07:30:17;;;;;;;22.95;12.90;;;6.80;87.00;;;;;;5090566;28;20440;-68
2021/10/23 07:32:44;;;;;;;22.77;12.90;;;6.90;87.30;;;;;;5072340;28;20090;-68
2021/10/23 07:35:10;;;;;;;24.77;14.02;;;7.00;87.70;;;;;;5072116;28;20128;-69
2021/10/23 07:37:37;;;;;;;21.95;13.05;;;7.00;87.60;;;;;;5090417;28;20103;-69
2021/10/23 07:40:05;;;;;;;29.70;14.82;;;7.10;87.80;;;;;;5072565;28;20051;-69
2021/10/23 07:42:31;;;;;;;20.40;15.93;;;7.10;88.50;;;;;;5083720;28;20028;-68
2021/10/23 07:44:58;;;;;;;21.42;15.23;;;7.20;88.90;;;;;;5086291;28;20016;-69
2021/10/23 07:47:24;;;;;;;20.15;14.40;;;7.20;88.90;;;;;;5091787;28;20470;-70
2021/10/23 07:49:49;;;;;;;19.60;14.18;;;7.30;89.00;;;;;;5071144;28;20028;-69
2021/10/23 07:52:19;;;;;;;18.13;14.68;;;7.40;89.00;;;;;;5093328;28;20036;-69
2021/10/23 07:54:44;;;;;;;21.30;14.45;;;7.40;89.00;;;;;;5089329;28;20471;-70
2021/10/23 07:57:10;;;;;;;22.20;16.83;;;7.50;89.10;;;;;;5090520;28;20052;-69
2021/10/23 07:59:36;;;;;;;19.88;16.48;;;7.50;89.80;;;;;;5090152;28;20036;-69
2021/10/23 08:02:03;;;;;;;19.90;15.48;;;7.60;90.00;;;;;;5089940;28;20085;-70
2021/10/23 08:04:30;;;;;;;16.75;14.57;;;7.60;90.00;;;;;;5068602;28;20092;-69
2021/10/23 08:06:59;;;;;;;14.10;12.10;;;7.70;90.00;;;;;;5072241;28;20024;-70
2021/10/23 08:09:25;;;;;;;17.67;14.82;;;7.70;89.90;;;;;;5090976;28;20138;-69
2021/10/23 08:11:50;;;;;;;22.80;17.25;;;7.80;90.10;;;;;;5087955;28;20169;-70
2021/10/23 08:14:16;;;;;;;17.48;15.60;;;7.80;90.30;;;;;;5069539;28;20081;-69
2021/10/23 08:16:42;;;;;;;20.30;16.67;;;7.90;90.30;;;;;;5086679;28;20522;-70
2021/10/23 08:19:08;;;;;;;19.08;16.23;;;7.90;90.30;;;;;;5089019;28;20499;-70
2021/10/23 08:21:35;;;;;;;20.85;16.73;;;8.00;90.30;;;;;;5090281;28;20039;-69
2021/10/23 08:24:01;;;;;;;19.55;16.52;;;8.10;90.30;;;;;;5089850;28;20028;-69
2021/10/23 08:26:27;;;;;;;22.98;16.13;;;8.10;90.20;;;;;;5071707;28;20032;-69
2021/10/23 08:28:54;;;;;;;17.77;15.82;;;8.20;90.20;;;;;;5090451;28;20032;-69
2021/10/23 08:31:20;;;;;;;19.58;16.50;;;8.20;90.20;;;;;;5088178;28;20128;-69
2021/10/23 08:33:46;;;;;;;19.45;14.25;;;8.30;90.20;;;;;;5062335;28;20242;-72
2021/10/23 08:36:13;;;;;;;21.63;15.60;;;8.30;90.20;;;;;;5092137;28;20409;-72
2021/10/23 08:38:38;;;;;;;22.70;16.33;;;8.30;90.20;;;;;;5069450;28;20518;-70
2021/10/23 08:41:06;;;;;;;19.88;14.32;;;8.40;90.20;;;;;;5060492;28;20025;-70
2021/10/23 08:43:34;;;;;;;23.98;17.00;;;8.50;90.20;;;;;;5086430;28;20028;-72
2021/10/23 08:46:01;;;;;;;19.67;16.10;;;8.40;90.40;;;;;;5087638;28;20387;-72
2021/10/23 08:48:27;;;;;;;21.17;16.42;;;8.50;90.40;;;;;;5086314;28;20091;-72
2021/10/23 08:50:53;;;;;;;21.08;16.70;;;8.50;90.40;;;;;;5085368;28;20056;-73
2021/10/23 08:53:21;;;;;;;20.90;16.67;;;8.60;90.40;;;;;;5085518;28;20028;-73
2021/10/23 08:55:47;;;;;;;20.20;16.42;;;8.60;90.40;;;;;;5067538;28;20626;-73
2021/10/23 08:58:16;;;;;;;18.45;14.63;;;8.60;90.40;;;;;;5067506;28;20075;-73
2021/10/23 09:00:43;;;;;;;22.42;15.93;;;8.60;90.60;;;;;;5085591;28;20039;-73
2021/10/23 09:03:10;;;;;;;25.13;15.85;;;8.60;90.40;;;;;;5067003;28;20040;-72
2021/10/23 09:05:37;;;;;;;21.27;16.83;;;8.60;90.40;;;;;;5085473;28;20032;-72
2021/10/23 09:08:14;;;;;;;19.40;16.13;;;8.70;90.50;;;;;;5086310;28;20024;-73
2021/10/23 09:10:45;;;;;;;20.95;16.98;;;8.70;90.50;;;;;;5093942;28;20111;-72
2021/10/23 09:13:11;;;;;;;19.33;16.20;;;8.70;90.60;;;;;;5064035;28;20032;-72
2021/10/23 09:15:43;;;;;;;19.70;16.52;;;8.80;90.60;;;;;;5085089;28;20494;-70
2021/10/23 09:18:09;;;;;;;19.47;15.43;;;8.80;90.60;;;;;;5080867;28;20031;-70
2021/10/23 09:20:40;;;;;;;22.58;16.77;;;8.80;90.50;;;;;;5060066;28;20039;-72
2021/10/23 09:23:26;;;;;;;19.95;16.13;;;8.80;90.50;;;;;;5074256;28;20495;-70
2021/10/23 09:25:52;;;;;;;22.05;18.40;;;8.80;90.50;;;;;;5085346;28;20040;-72
2021/10/23 09:28:29;;;;;;;21.88;16.92;;;8.90;90.60;;;;;;5088037;28;20089;-69
2021/10/23 09:30:55;;;;;;;19.05;16.52;;;8.90;90.60;;;;;;5087381;28;20024;-72
2021/10/23 09:33:24;;;;;;;19.83;15.32;;;9.00;90.60;;;;;;5085767;28;20036;-69
2021/10/23 09:35:55;;;;;;;20.75;15.95;;;9.00;90.60;;;;;;5069597;28;20028;-72
2021/10/23 09:38:24;;;;;;;21.55;16.20;;;9.00;90.50;;;;;;5095022;28;20027;-69
2021/10/23 09:40:53;;;;;;;19.83;16.95;;;9.00;90.50;;;;;;5088487;28;20032;-69
2021/10/23 09:43:28;;;;;;;21.10;16.73;;;9.10;90.50;;;;;;5095921;28;20390;-71
2021/10/23 09:46:00;;;;;;;25.52;18.42;;;9.10;90.60;;;;;;5094239;28;20046;-72
2021/10/23 09:48:41;;;;;;;20.63;18.38;;;9.10;90.60;;;;;;5092655;28;20107;-73
2021/10/23 09:51:22;;;;;;;23.02;17.85;;;9.20;90.60;;;;;;5100393;28;20107;-72
2021/10/23 09:53:56;;;;;;;20.45;16.73;;;9.30;90.90;;;;;;5085153;28;20028;-71
2021/10/23 09:56:38;;;;;;;21.00;17.33;;;9.30;90.70;;;;;;5088587;28;20039;-72
2021/10/23 09:59:11;;;;;;;19.13;16.88;;;9.30;90.70;;;;;;5091914;28;20024;-72
2021/10/23 10:01:42;;;;;;;22.30;17.25;;;9.40;90.70;;;;;;5092625;28;20080;-72
2021/10/23 10:04:11;;;;;;;21.02;17.13;;;9.40;90.70;;;;;;5073003;28;20027;-69
2021/10/23 10:06:38;;;;;;;19.70;16.27;;;9.50;90.70;;;;;;5076087;28;20387;-73
2021/10/23 10:09:06;;;;;;;19.42;16.85;;;9.50;90.70;;;;;;5068631;28;20028;-72
2021/10/23 10:11:36;;;;;;;21.02;18.63;;;9.60;90.70;;;;;;5091956;28;20020;-73
2021/10/23 10:14:05;;;;;;;21.23;18.25;;;9.70;90.80;;;;;;5071338;28;20028;-72
2021/10/23 10:16:32;;;;;;;22.92;19.08;;;9.80;90.80;;;;;;5089043;28;20045;-72
2021/10/23 10:18:58;;;;;;;23.40;18.00;;;9.80;90.80;;;;;;5073797;28;20083;-72
2021/10/23 10:21:24;;;;;;;26.15;19.27;;;9.90;90.60;;;;;;5085172;28;20425;-69
2021/10/23 10:23:52;;;;;;;23.98;18.70;;;10.00;90.70;;;;;;5074243;28;20473;-72
2021/10/23 10:26:24;;;;;;;24.50;19.23;;;10.20;90.70;;;;;;5062310;28;20032;-72
2021/10/23 10:29:13;;;;;;;22.60;17.90;;;10.40;90.50;;;;;;5068123;28;20032;-69
2021/10/23 10:32:01;;;;;;;25.17;18.67;;;10.50;90.30;;;;;;5086014;28;20028;-68
2021/10/23 10:37:43;;;;;;;21.75;16.73;;;10.60;90.20;;;;;;5065283;28;20124;-73
2021/10/23 10:40:32;;;;;;;21.05;16.33;;;10.70;90.30;;;;;;5098866;28;20484;-70
2021/10/23 10:43:03;;;;;;;20.90;16.17;;;10.70;90.40;;;;;;5080649;28;20029;-69
2021/10/23 10:46:03;;;;;;;17.15;15.13;;;11.10;90.40;;;;;;5088381;28;20020;-69
2021/10/23 10:48:34;;;;;;;18.52;16.27;;;11.30;90.10;;;;;;5076652;28;20122;-71
2021/10/23 10:51:14;;;;;;;16.80;13.77;;;11.60;89.70;;;;;;5082668;28;20391;-73
2021/10/23 10:53:42;;;;;;;22.70;15.30;;;11.70;89.20;;;;;;5076417;28;20051;-72
2021/10/23 10:56:10;;;;;;;22.38;15.68;;;11.80;88.60;;;;;;5095480;28;20115;-68
2021/10/23 10:58:57;;;;;;;17.67;12.73;;;11.80;88.50;;;;;;5089575;28;20770;-69
2021/10/23 11:01:30;;;;;;;19.00;12.43;;;11.80;87.30;;;;;;5091275;28;20024;-69
2021/10/23 11:04:08;;;;;;;18.70;14.35;;;11.90;87.30;;;;;;5081783;28;20020;-72
2021/10/23 11:06:36;;;;;;;17.13;13.95;;;11.90;87.20;;;;;;5071317;28;20106;-69
2021/10/23 11:09:10;;;;;;;15.20;12.82;;;12.00;87.40;;;;;;5093147;28;20028;-68
2021/10/23 11:11:45;;;;;;;15.52;12.85;;;12.00;87.60;;;;;;5093151;28;20012;-72
2021/10/23 11:14:36;;;;;;;16.13;12.45;;;12.10;86.50;;;;;;5083797;28;20534;-72
2021/10/23 11:17:03;;;;;;;27.10;14.25;;;12.10;87.10;;;;;;5087708;28;20427;-72
2021/10/23 11:19:32;;;;;;;16.27;12.70;;;12.10;87.40;;;;;;5087725;28;20074;-72
2021/10/23 11:22:03;;;;;;;19.17;12.52;;;12.10;87.60;;;;;;5088448;28;20447;-69
2021/10/23 11:24:42;;;;;;;15.10;11.87;;;12.20;86.90;;;;;;5089202;28;20118;-72
2021/10/23 11:27:09;;;;;;;15.50;11.25;;;12.10;86.80;;;;;;5088458;28;20029;-72
2021/10/23 11:29:37;;;;;;;16.70;12.32;;;12.00;86.40;;;;;;5071373;28;20111;-72
2021/10/23 11:32:03;;;;;;;15.32;12.10;;;12.00;87.10;;;;;;5097107;28;20486;-72
2021/10/23 11:34:35;;;;;;;15.40;12.13;;;12.00;87.30;;;;;;5086630;28;20032;-72
2021/10/23 11:37:11;;;;;;;19.02;12.85;;;12.00;87.20;;;;;;5092225;28;20036;-69
2021/10/23 11:39:40;;;;;;;12.07;10.27;;;12.00;87.50;;;;;;5084613;28;20518;-72
2021/10/23 11:42:25;;;;;;;17.08;12.57;;;12.00;87.50;;;;;;5096174;28;20124;-72
2021/10/23 11:44:55;;;;;;;19.75;13.15;;;12.00;87.70;;;;;;5088410;28;20095;-69
2021/10/23 11:47:29;;;;;;;15.65;11.75;;;12.00;87.70;;;;;;5075044;28;20069;-70
2021/10/23 11:50:03;;;;;;;17.48;11.93;;;12.10;87.60;;;;;;5083173;28;20525;-70
2021/10/23 11:52:31;;;;;;;18.17;10.98;;;12.20;87.10;;;;;;5098654;28;20020;-69
2021/10/23 11:54:57;;;;;;;16.65;11.32;;;12.20;87.00;;;;;;5085679;28;20034;-72
2021/10/23 11:57:34;;;;;;;17.55;11.88;;;12.20;87.40;;;;;;5097038;28;20050;-72
2021/10/23 12:00:01;;;;;;;17.48;11.23;;;12.20;87.40;;;;;;5085136;28;20142;-69
2021/10/23 12:02:50;;;;;;;15.93;10.52;;;12.30;87.30;;;;;;5088565;28;20032;-70
2021/10/23 12:05:40;;;;;;;18.67;11.25;;;12.30;86.70;;;;;;5081567;28;20086;-69
2021/10/23 12:08:18;;;;;;;17.27;10.27;;;12.40;86.50;;;;;;5088887;28;20024;-73
2021/10/23 12:11:02;;;;;;;15.70;10.05;;;12.40;85.50;;;;;;5077698;28;20035;-70
2021/10/23 12:13:51;;;;;;;18.13;11.35;;;12.30;85.10;;;;;;5079724;28;20036;-70
2021/10/23 12:16:19;;;;;;;16.00;9.88;;;12.30;85.40;;;;;;5086118;28;20071;-72
2021/10/23 12:18:46;;;;;;;14.75;10.73;;;12.30;85.20;;;;;;5064945;28;20127;-70
2021/10/23 12:21:21;;;;;;;17.95;10.45;;;12.20;85.50;;;;;;5072718;28;20044;-69
2021/10/23 12:23:56;;;;;;;20.30;10.30;;;12.20;84.30;;;;;;5090589;28;20522;-72
2021/10/23 12:26:32;;;;;;;18.50;12.05;;;12.20;84.20;;;;;;5093084;28;20020;-73
2021/10/23 12:29:12;;;;;;;16.92;11.52;;;12.20;83.50;;;;;;5091000;28;20463;-71
2021/10/23 12:31:59;;;;;;;20.25;11.50;;;12.20;83.50;;;;;;5088102;28;20016;-72
2021/10/23 12:34:28;;;;;;;17.13;12.27;;;12.20;84.00;;;;;;5089666;28;20020;-72
2021/10/23 12:36:56;;;;;;;17.25;11.88;;;12.20;83.40;;;;;;5097173;28;20032;-73
2021/10/23 12:39:25;;;;;;;18.38;10.68;;;12.20;83.40;;;;;;5078587;28;20473;-72
2021/10/23 12:41:51;;;;;;;22.55;12.57;;;12.20;84.00;;;;;;5087091;28;20068;-73
2021/10/23 12:44:18;;;;;;;17.23;11.40;;;12.30;84.50;;;;;;5088804;28;20047;-72
2021/10/23 12:46:46;;;;;;;18.17;12.57;;;12.30;84.80;;;;;;5079976;28;20021;-72
2021/10/23 12:49:12;;;;;;;20.33;12.93;;;12.30;84.80;;;;;;5080793;28;20016;-73
2021/10/23 12:51:38;;;;;;;19.83;14.00;;;12.30;85.00;;;;;;5086259;28;20016;-72